Time;durP1;ratioP1;P1;durP2;ratioP2;P2;SDS_P1;SDS_P2;PMS_P1;PMS_P2;Temp;Humidity;BMP_temperature;BMP_pressure;BME280_temperature;BME280_humidity;BME280_pressure;Samples;Min_cycle;Max_cycle;Signal;HPM_P1;HPM_P2
2022/12/10 00:00:39;;;;;;;14.23;7.28;;;;;;;;;;6005928;23;20026;-84
2022/12/10 00:03:06;;;;;;;17.63;7.82;;;;;;;;;;6006233;23;20059;-84
2022/12/10 00:05:35;;;;;;;15.32;7.20;;;;;;;;;;6006178;23;20012;-84
2022/12/10 00:08:00;;;;;;;15.38;8.00;;;;;;;;;;6031144;23;20019;-84
2022/12/10 00:10:26;;;;;;;15.38;6.72;;;;;;;;;;6005960;23;20137;-83
2022/12/10 00:12:51;;;;;;;15.60;7.20;;;;;;;;;;6006645;23;20019;-84
2022/12/10 00:15:16;;;;;;;15.95;7.43;;;;;;;;;;6005689;23;20027;-84
2022/12/10 00:17:42;;;;;;;13.57;6.15;;;;;;;;;;6008009;23;20015;-84
2022/12/10 00:20:08;;;;;;;16.27;7.95;;;;;;;;;;6030046;23;20015;-85
2022/12/10 00:22:34;;;;;;;14.52;6.85;;;;;;;;;;6007093;23;20011;-84
2022/12/10 00:24:59;;;;;;;15.52;7.20;;;;;;;;;;6006631;23;20026;-84
2022/12/10 00:27:27;;;;;;;14.30;6.40;;;;;;;;;;6006517;23;20095;-84
2022/12/10 00:29:53;;;;;;;13.68;6.88;;;;;;;;;;6007325;23;20020;-84
2022/12/10 00:32:18;;;;;;;17.63;7.45;;;;;;;;;;6006633;23;20038;-84
2022/12/10 00:34:43;;;;;;;16.02;7.40;;;;;;;;;;6006618;23;20098;-84
2022/12/10 00:37:09;;;;;;;14.68;6.97;;;;;;;;;;6029908;23;20082;-85
2022/12/10 00:39:34;;;;;;;15.45;7.90;;;;;;;;;;6006672;23;20019;-84
2022/12/10 00:42:00;;;;;;;16.50;7.78;;;;;;;;;;6006425;23;20448;-84
2022/12/10 00:44:25;;;;;;;15.48;7.15;;;;;;;;;;6006688;23;20023;-84
2022/12/10 00:46:50;;;;;;;15.25;6.72;;;;;;;;;;6005788;23;20050;-84
2022/12/10 00:49:16;;;;;;;17.70;7.97;;;;;;;;;;6030274;23;20016;-84
2022/12/10 00:51:41;;;;;;;15.05;6.75;;;;;;;;;;6005817;23;20015;-83
2022/12/10 00:54:07;;;;;;;16.25;7.50;;;;;;;;;;6006495;23;20011;-83
2022/12/10 00:56:33;;;;;;;16.92;7.80;;;;;;;;;;6005836;23;20652;-83
2022/12/10 00:58:59;;;;;;;13.25;6.57;;;;;;;;;;6030201;23;20015;-84
2022/12/10 01:01:39;;;;;;;15.73;7.57;;;;;;;;;;6005461;23;20519;-84
2022/12/10 01:04:08;;;;;;;18.38;7.75;;;;;;;;;;6006336;23;21388;-84
2022/12/10 01:06:36;;;;;;;16.90;8.20;;;;;;;;;;6004983;23;20143;-84
2022/12/10 01:09:07;;;;;;;15.70;7.53;;;;;;;;;;6006896;23;20591;-84
2022/12/10 01:11:36;;;;;;;15.85;7.25;;;;;;;;;;6005624;23;20519;-84
2022/12/10 01:14:02;;;;;;;17.27;7.60;;;;;;;;;;6007076;23;20452;-84
2022/12/10 01:16:28;;;;;;;16.02;6.88;;;;;;;;;;6005683;23;20071;-85
2022/12/10 01:18:54;;;;;;;16.92;7.95;;;;;;;;;;6006232;23;20022;-84
2022/12/10 01:21:20;;;;;;;14.83;7.37;;;;;;;;;;6005328;23;20102;-85
2022/12/10 01:23:48;;;;;;;15.55;7.65;;;;;;;;;;6006505;23;20027;-85
2022/12/10 01:26:19;;;;;;;17.75;7.70;;;;;;;;;;6005068;23;20464;-84
2022/12/10 01:28:45;;;;;;;15.93;7.30;;;;;;;;;;5983266;23;20022;-84
2022/12/10 01:31:12;;;;;;;16.75;7.85;;;;;;;;;;6023605;23;20540;-85
2022/12/10 01:33:38;;;;;;;;;;;;;;;;;;6030160;23;20034;-84
2022/12/10 01:36:09;;;;;;;18.45;8.18;;;;;;;;;;6028914;23;19920;-84
2022/12/10 01:38:35;;;;;;;16.30;7.47;;;;;;;;;;6029759;23;20027;-84
2022/12/10 01:41:01;;;;;;;14.93;7.20;;;;;;;;;;6005336;23;20479;-84
2022/12/10 01:43:27;;;;;;;15.52;7.30;;;;;;;;;;6005919;23;20030;-84
2022/12/10 01:45:53;;;;;;;18.92;8.55;;;;;;;;;;6005315;23;20026;-84
2022/12/10 01:48:19;;;;;;;19.60;8.60;;;;;;;;;;6005980;23;20071;-84
2022/12/10 01:50:44;;;;;;;15.57;7.55;;;;;;;;;;6005324;23;20053;-84
2022/12/10 01:53:11;;;;;;;16.48;7.38;;;;;;;;;;6006014;23;20035;-85
2022/12/10 01:55:44;;;;;;;19.38;8.38;;;;;;;;;;6005118;23;20019;-84
2022/12/10 01:58:11;;;;;;;18.83;8.52;;;;;;;;;;6030202;23;20032;-84
2022/12/10 02:00:41;;;;;;;16.63;8.05;;;;;;;;;;6004118;23;20083;-84
2022/12/10 02:03:13;;;;;;;15.25;7.85;;;;;;;;;;6029454;23;20444;-84
2022/12/10 02:05:43;;;;;;;16.13;7.35;;;;;;;;;;6004594;23;20449;-84
2022/12/10 02:08:16;;;;;;;20.58;8.57;;;;;;;;;;6005504;23;20022;-84
2022/12/10 02:11:04;;;;;;;15.52;7.15;;;;;;;;;;6004787;23;20729;-84
2022/12/10 02:13:51;;;;;;;;;;;;;;;;;;6029297;23;20051;-84
2022/12/10 02:16:24;;;;;;;14.43;6.70;;;;;;;;;;6004276;23;19920;-84
2022/12/10 02:18:58;;;;;;;18.40;8.02;;;;;;;;;;6005754;23;20023;-84
2022/12/10 02:21:30;;;;;;;15.77;7.40;;;;;;;;;;6005056;23;20030;-84
2022/12/10 02:24:00;;;;;;;16.83;7.68;;;;;;;;;;6005955;23;20466;-84
2022/12/10 02:26:47;;;;;;;18.63;8.18;;;;;;;;;;6004499;23;20187;-84
2022/12/10 02:29:21;;;;;;;15.75;7.10;;;;;;;;;;5977424;23;20033;-84
2022/12/10 02:31:50;;;;;;;16.35;7.13;;;;;;;;;;6004541;23;20364;-84
2022/12/10 02:34:16;;;;;;;19.08;7.22;;;;;;;;;;6006164;23;20095;-84
2022/12/10 02:36:44;;;;;;;15.45;7.45;;;;;;;;;;6005700;23;20015;-84
2022/12/10 02:39:12;;;;;;;15.98;7.32;;;;;;;;;;6030028;23;20448;-84
2022/12/10 02:41:38;;;;;;;;;;;;;;;;;;6005910;23;20023;-84
2022/12/10 02:44:07;;;;;;;15.90;7.35;;;;;;;;;;6006377;23;20246;-84
2022/12/10 02:46:34;;;;;;;15.18;7.47;;;;;;;;;;6004481;23;20028;-83
2022/12/10 02:49:01;;;;;;;18.58;8.15;;;;;;;;;;6006690;23;20074;-83
2022/12/10 02:51:26;;;;;;;15.10;7.17;;;;;;;;;;6004149;23;20399;-83
2022/12/10 02:54:00;;;;;;;16.02;7.72;;;;;;;;;;6006093;23;20015;-83
2022/12/10 02:56:58;;;;;;;15.80;7.80;;;;;;;;;;6005138;23;20019;-83
2022/12/10 02:59:48;;;;;;;16.50;7.72;;;;;;;;;;5997754;23;20023;-84
2022/12/10 03:02:26;;;;;;;15.45;7.35;;;;;;;;;;6005364;23;20027;-84
2022/12/10 03:05:12;;;;;;;15.38;7.30;;;;;;;;;;6031143;23;20035;-84
2022/12/10 03:07:44;;;;;;;18.27;8.23;;;;;;;;;;6005629;23;20034;-84
2022/12/10 03:10:30;;;;;;;15.77;6.90;;;;;;;;;;6005809;23;20431;-84
2022/12/10 03:13:00;;;;;;;17.38;8.20;;;;;;;;;;6030146;23;20488;-83
2022/12/10 03:15:27;;;;;;;17.77;8.10;;;;;;;;;;6005054;23;20348;-84
2022/12/10 03:17:54;;;;;;;15.25;6.88;;;;;;;;;;6005774;23;20015;-84
2022/12/10 03:20:21;;;;;;;13.07;6.65;;;;;;;;;;6004697;23;20021;-84
2022/12/10 03:22:47;;;;;;;14.27;6.97;;;;;;;;;;6005694;23;20022;-84
2022/12/10 03:25:18;;;;;;;17.85;7.93;;;;;;;;;;6005486;23;20023;-85
2022/12/10 03:27:43;;;;;;;16.05;8.38;;;;;;;;;;5982479;23;20019;-84
2022/12/10 03:30:09;;;;;;;16.40;7.70;;;;;;;;;;6000678;23;20087;-84
2022/12/10 03:32:35;;;;;;;16.23;7.43;;;;;;;;;;6003525;23;20023;-84
2022/12/10 03:35:01;;;;;;;17.67;7.68;;;;;;;;;;6005256;23;20011;-84
2022/12/10 03:37:27;;;;;;;17.83;7.75;;;;;;;;;;6005481;23;20051;-84
2022/12/10 03:39:53;;;;;;;17.33;7.93;;;;;;;;;;6004928;23;20019;-84
2022/12/10 03:42:18;;;;;;;16.63;7.63;;;;;;;;;;6028932;23;20016;-84
2022/12/10 03:44:44;;;;;;;18.85;8.75;;;;;;;;;;6005771;23;20755;-84
2022/12/10 03:47:12;;;;;;;18.65;8.13;;;;;;;;;;6004409;23;20046;-84
2022/12/10 03:49:38;;;;;;;17.90;7.80;;;;;;;;;;6005367;23;20023;-84
2022/12/10 03:52:03;;;;;;;15.82;7.32;;;;;;;;;;6007141;23;20511;-84
2022/12/10 03:54:29;;;;;;;16.13;7.13;;;;;;;;;;6030716;23;20030;-84
2022/12/10 03:56:54;;;;;;;16.85;8.13;;;;;;;;;;6006128;23;20037;-83
2022/12/10 03:59:20;;;;;;;17.55;8.15;;;;;;;;;;6007235;23;20019;-85
2022/12/10 04:01:45;;;;;;;18.55;7.82;;;;;;;;;;6006478;23;20022;-85
2022/12/10 04:04:11;;;;;;;18.00;8.05;;;;;;;;;;6007368;23;20122;-85
2022/12/10 04:06:44;;;;;;;16.10;6.90;;;;;;;;;;6006181;23;20095;-85
2022/12/10 04:09:10;;;;;;;16.35;7.80;;;;;;;;;;6006578;23;20030;-84
2022/12/10 04:11:36;;;;;;;16.53;7.33;;;;;;;;;;6005722;23;20058;-84
2022/12/10 04:16:45;;;;;;;16.20;7.45;;;;;;;;;;6020210;23;20021;-84
2022/12/10 04:19:14;;;;;;;16.15;7.68;;;;;;;;;;6007496;23;20094;-84
2022/12/10 04:27:21;;;;;;;19.08;8.32;;;;;;;;;;6030214;23;20175;-84
2022/12/10 04:29:46;;;;;;;16.17;8.05;;;;;;;;;;6006193;23;20150;-84
2022/12/10 04:32:15;;;;;;;15.13;7.70;;;;;;;;;;6006945;23;20034;-84
2022/12/10 04:34:41;;;;;;;17.85;7.72;;;;;;;;;;6006530;23;20043;-84
2022/12/10 04:37:06;;;;;;;17.23;7.57;;;;;;;;;;6006379;23;20022;-84
2022/12/10 04:39:32;;;;;;;15.48;7.60;;;;;;;;;;6006653;23;20519;-84
2022/12/10 04:41:57;;;;;;;15.50;7.30;;;;;;;;;;6005583;23;20086;-84
2022/12/10 04:44:26;;;;;;;17.70;8.60;;;;;;;;;;6007148;23;20507;-84
2022/12/10 04:46:52;;;;;;;18.35;8.25;;;;;;;;;;5993144;23;20019;-85
2022/12/10 04:49:20;;;;;;;17.92;7.80;;;;;;;;;;6030570;23;20023;-84
2022/12/10 04:51:46;;;;;;;18.00;8.02;;;;;;;;;;6007145;23;20020;-84
2022/12/10 04:54:12;;;;;;;18.02;8.40;;;;;;;;;;6006674;23;20388;-84
2022/12/10 04:56:37;;;;;;;16.23;7.88;;;;;;;;;;6005541;23;20036;-84
2022/12/10 04:59:04;;;;;;;20.42;9.20;;;;;;;;;;6006386;23;20352;-84
2022/12/10 05:01:30;;;;;;;18.17;8.43;;;;;;;;;;6029379;23;20059;-84
2022/12/10 05:03:59;;;;;;;18.63;7.80;;;;;;;;;;6006122;23;20019;-83
2022/12/10 05:06:24;;;;;;;19.02;8.38;;;;;;;;;;6004863;23;20027;-83
2022/12/10 05:08:50;;;;;;;19.77;8.98;;;;;;;;;;6029806;23;20074;-84
2022/12/10 05:11:17;;;;;;;17.92;8.65;;;;;;;;;;6005813;23;20031;-86
2022/12/10 05:13:43;;;;;;;15.82;7.95;;;;;;;;;;5983947;23;20107;-84
2022/12/10 05:16:10;;;;;;;17.75;8.55;;;;;;;;;;5987973;23;20393;-82
2022/12/10 05:18:36;;;;;;;19.23;8.60;;;;;;;;;;6006435;23;20167;-82
2022/12/10 05:21:04;;;;;;;21.13;9.60;;;;;;;;;;6029395;23;20021;-83
2022/12/10 05:23:30;;;;;;;18.98;8.80;;;;;;;;;;6030151;23;20122;-82
2022/12/10 05:26:12;;;;;;;20.58;9.20;;;;;;;;;;6005941;23;20022;-81
2022/12/10 05:28:52;;;;;;;19.05;8.55;;;;;;;;;;6032926;23;20090;-81
2022/12/10 05:31:19;;;;;;;19.77;8.55;;;;;;;;;;6005093;23;20464;-81
2022/12/10 05:33:45;;;;;;;17.70;8.23;;;;;;;;;;6006274;23;20022;-82
2022/12/10 05:36:13;;;;;;;18.88;8.50;;;;;;;;;;6004379;23;20023;-82
2022/12/10 05:38:39;;;;;;;18.58;8.55;;;;;;;;;;6029790;23;20451;-81
2022/12/10 05:41:14;;;;;;;18.48;8.70;;;;;;;;;;6005239;23;20019;-82
2022/12/10 05:43:40;;;;;;;18.65;8.82;;;;;;;;;;6007637;23;20024;-82
2022/12/10 05:46:09;;;;;;;18.52;8.77;;;;;;;;;;6005201;23;20022;-82
2022/12/10 05:48:34;;;;;;;16.17;8.43;;;;;;;;;;6006322;23;20016;-82
2022/12/10 05:51:27;;;;;;;18.45;8.50;;;;;;;;;;6005773;23;20333;-81
2022/12/10 05:53:53;;;;;;;19.77;8.75;;;;;;;;;;6002881;23;20020;-81
2022/12/10 05:56:20;;;;;;;15.77;8.07;;;;;;;;;;6028608;23;20023;-82
2022/12/10 05:58:50;;;;;;;20.05;8.70;;;;;;;;;;6007675;23;20452;-82
2022/12/10 06:01:21;;;;;;;17.17;7.80;;;;;;;;;;6007152;23;20763;-83
2022/12/10 06:03:47;;;;;;;19.42;8.10;;;;;;;;;;6006997;23;20051;-82
2022/12/10 06:06:13;;;;;;;15.85;7.50;;;;;;;;;;6006559;23;20023;-82
2022/12/10 06:08:39;;;;;;;16.98;7.70;;;;;;;;;;6007635;23;20030;-82
2022/12/10 06:11:13;;;;;;;16.92;7.80;;;;;;;;;;6007005;23;20046;-82
2022/12/10 06:13:39;;;;;;;19.05;7.97;;;;;;;;;;6029851;23;20023;-82
2022/12/10 06:16:06;;;;;;;14.88;7.95;;;;;;;;;;6028545;23;20026;-82
2022/12/10 06:18:31;;;;;;;16.77;8.20;;;;;;;;;;6005910;23;20082;-81
2022/12/10 06:20:57;;;;;;;14.02;7.28;;;;;;;;;;6005527;23;20078;-82
2022/12/10 06:23:22;;;;;;;18.05;8.18;;;;;;;;;;6030252;23;20388;-82
2022/12/10 06:25:48;;;;;;;17.25;8.60;;;;;;;;;;6005541;23;20475;-82
2022/12/10 06:28:13;;;;;;;16.73;8.30;;;;;;;;;;6006731;23;20427;-82
2022/12/10 06:30:38;;;;;;;15.50;7.05;;;;;;;;;;6006088;23;20026;-82
2022/12/10 06:33:04;;;;;;;13.88;7.53;;;;;;;;;;6007386;23;20015;-82
2022/12/10 06:35:29;;;;;;;15.40;8.18;;;;;;;;;;6006453;23;20016;-82
2022/12/10 06:37:54;;;;;;;16.45;7.72;;;;;;;;;;6007788;23;20019;-83
2022/12/10 06:40:20;;;;;;;16.25;7.78;;;;;;;;;;6007154;23;20038;-83
2022/12/10 06:42:45;;;;;;;17.92;8.20;;;;;;;;;;6007901;23;20016;-82
2022/12/10 06:45:11;;;;;;;14.77;7.20;;;;;;;;;;6007012;23;20042;-81
2022/12/10 06:47:39;;;;;;;16.20;7.72;;;;;;;;;;6006703;23;20973;-81
2022/12/10 06:50:04;;;;;;;20.02;7.78;;;;;;;;;;6006585;23;20012;-81
2022/12/10 06:52:30;;;;;;;16.92;7.78;;;;;;;;;;6028662;23;20091;-81
2022/12/10 06:54:56;;;;;;;14.50;7.78;;;;;;;;;;6005849;23;20050;-80
2022/12/10 06:57:21;;;;;;;17.25;7.90;;;;;;;;;;6004660;23;20027;-81
2022/12/10 06:59:47;;;;;;;15.30;7.47;;;;;;;;;;6006302;23;20015;-82
2022/12/10 07:02:13;;;;;;;16.60;7.60;;;;;;;;;;6006405;23;20023;-82
2022/12/10 07:04:39;;;;;;;16.70;7.35;;;;;;;;;;6005309;23;20027;-81
2022/12/10 07:07:05;;;;;;;15.23;7.75;;;;;;;;;;6005190;23;20019;-82
2022/12/10 07:09:31;;;;;;;14.77;7.60;;;;;;;;;;6005847;23;20027;-82
2022/12/10 07:11:57;;;;;;;14.77;7.40;;;;;;;;;;6028474;23;20031;-81
2022/12/10 07:14:34;;;;;;;17.42;7.82;;;;;;;;;;6005335;23;20098;-81
2022/12/10 07:17:02;;;;;;;;;;;;;;;;;;6029726;23;20015;-81
2022/12/10 07:19:27;;;;;;;13.02;6.18;;;;;;;;;;6006520;23;19992;-82
2022/12/10 07:21:52;;;;;;;15.35;7.97;;;;;;;;;;6005018;23;20382;-82
2022/12/10 07:24:18;;;;;;;14.40;6.82;;;;;;;;;;6005369;23;20034;-82
2022/12/10 07:26:45;;;;;;;12.68;7.07;;;;;;;;;;6006806;23;20019;-81
2022/12/10 07:29:16;;;;;;;13.03;6.80;;;;;;;;;;6007633;23;20049;-82
2022/12/10 07:31:41;;;;;;;14.93;6.97;;;;;;;;;;6005460;23;20251;-83
2022/12/10 07:34:08;;;;;;;14.70;7.13;;;;;;;;;;6006988;23;20023;-81
2022/12/10 07:36:34;;;;;;;15.00;7.35;;;;;;;;;;6031061;23;20018;-82
2022/12/10 07:38:59;;;;;;;13.15;7.03;;;;;;;;;;6031654;23;20015;-82
2022/12/10 07:41:25;;;;;;;14.77;7.80;;;;;;;;;;6030458;23;20075;-82
2022/12/10 07:43:51;;;;;;;14.57;7.15;;;;;;;;;;6008093;23;20139;-83
2022/12/10 07:46:22;;;;;;;14.45;7.45;;;;;;;;;;6007369;23;20393;-82
2022/12/10 07:48:48;;;;;;;12.95;6.70;;;;;;;;;;6008143;23;20026;-82
2022/12/10 07:51:15;;;;;;;12.57;6.65;;;;;;;;;;6031739;23;20484;-81
2022/12/10 07:53:42;;;;;;;13.50;7.05;;;;;;;;;;6031515;23;20017;-81
2022/12/10 07:56:07;;;;;;;12.45;6.30;;;;;;;;;;6006812;23;20034;-82
2022/12/10 07:58:33;;;;;;;12.30;6.95;;;;;;;;;;6007465;23;20106;-81
2022/12/10 08:00:58;;;;;;;12.98;6.50;;;;;;;;;;6006071;23;20019;-82
2022/12/10 08:03:24;;;;;;;13.88;6.38;;;;;;;;;;6006971;23;20058;-80
2022/12/10 08:06:00;;;;;;;12.85;6.70;;;;;;;;;;6005696;23;20360;-81
2022/12/10 08:08:25;;;;;;;11.68;6.40;;;;;;;;;;6006344;23;20023;-78
2022/12/10 08:10:50;;;;;;;11.02;6.40;;;;;;;;;;6005662;23;20023;-79
2022/12/10 08:13:16;;;;;;;12.35;6.57;;;;;;;;;;6006836;23;20388;-79
2022/12/10 08:15:41;;;;;;;12.43;6.82;;;;;;;;;;6005139;23;20049;-79
2022/12/10 08:18:07;;;;;;;13.18;6.53;;;;;;;;;;6005889;23;20098;-79
2022/12/10 08:20:32;;;;;;;12.63;6.80;;;;;;;;;;6005433;23;20356;-79
2022/12/10 08:22:57;;;;;;;12.05;6.55;;;;;;;;;;6030381;23;20016;-81
2022/12/10 08:25:23;;;;;;;13.30;6.43;;;;;;;;;;6005695;23;20022;-81
2022/12/10 08:27:48;;;;;;;12.55;6.95;;;;;;;;;;6007446;23;20098;-82
2022/12/10 08:30:14;;;;;;;13.18;6.85;;;;;;;;;;6007572;23;20360;-83
2022/12/10 08:32:39;;;;;;;10.93;6.43;;;;;;;;;;6030277;23;20019;-82
2022/12/10 08:35:05;;;;;;;13.48;6.75;;;;;;;;;;6006694;23;20015;-82
2022/12/10 08:37:30;;;;;;;14.27;7.32;;;;;;;;;;6006895;23;20015;-82
2022/12/10 08:39:56;;;;;;;13.77;7.40;;;;;;;;;;6006954;23;20026;-82
2022/12/10 08:42:21;;;;;;;12.07;6.78;;;;;;;;;;6029803;23;20015;-82
2022/12/10 08:44:47;;;;;;;10.82;6.30;;;;;;;;;;6007480;23;20031;-82
2022/12/10 08:47:12;;;;;;;11.23;6.30;;;;;;;;;;5997695;23;20031;-81
2022/12/10 08:49:41;;;;;;;12.18;6.47;;;;;;;;;;6006994;23;20113;-82
2022/12/10 08:52:09;;;;;;;12.38;6.93;;;;;;;;;;6005700;23;20016;-82
2022/12/10 08:54:34;;;;;;;14.60;7.00;;;;;;;;;;5995746;23;20023;-83
2022/12/10 08:57:00;;;;;;;12.68;7.00;;;;;;;;;;5998032;23;20018;-83
2022/12/10 08:59:25;;;;;;;10.95;6.70;;;;;;;;;;6007308;23;20055;-83
2022/12/10 09:01:53;;;;;;;13.57;7.55;;;;;;;;;;6007971;23;20017;-82
2022/12/10 09:04:19;;;;;;;12.18;6.68;;;;;;;;;;6031707;23;20460;-82
2022/12/10 09:06:44;;;;;;;11.43;6.47;;;;;;;;;;6006389;23;20023;-82
2022/12/10 09:09:09;;;;;;;14.80;7.07;;;;;;;;;;6006745;23;20031;-84
2022/12/10 09:11:37;;;;;;;11.00;6.72;;;;;;;;;;6006457;23;20015;-84
2022/12/10 09:14:03;;;;;;;12.57;6.18;;;;;;;;;;6005872;23;20015;-80
2022/12/10 09:16:36;;;;;;;12.55;7.13;;;;;;;;;;5998431;23;20094;-82
2022/12/10 09:19:03;;;;;;;12.95;7.18;;;;;;;;;;6006784;23;20094;-81
2022/12/10 09:21:30;;;;;;;18.35;7.35;;;;;;;;;;6005012;23;20075;-83
2022/12/10 09:23:55;;;;;;;11.27;6.43;;;;;;;;;;6006272;23;20027;-82
2022/12/10 09:26:21;;;;;;;15.02;7.28;;;;;;;;;;6005320;23;20480;-80
2022/12/10 09:28:47;;;;;;;12.50;6.90;;;;;;;;;;6005453;23;20895;-80
2022/12/10 09:31:14;;;;;;;13.10;7.00;;;;;;;;;;5994267;23;20058;-79
2022/12/10 09:33:42;;;;;;;12.70;6.93;;;;;;;;;;6005699;23;20015;-79
2022/12/10 09:36:09;;;;;;;14.23;7.15;;;;;;;;;;6006025;23;20023;-80
2022/12/10 09:38:36;;;;;;;14.82;6.50;;;;;;;;;;5993535;23;20019;-82
2022/12/10 09:41:03;;;;;;;;;;;;;;;;;;6006149;23;20436;-82
2022/12/10 09:44:00;;;;;;;14.27;7.00;;;;;;;;;;6003742;23;20023;-84
2022/12/10 09:47:05;;;;;;;12.73;6.75;;;;;;;;;;6015571;23;20027;-82
2022/12/10 09:49:43;;;;;;;14.13;7.50;;;;;;;;;;6012549;23;20019;-81
2022/12/10 09:52:13;;;;;;;13.82;7.82;;;;;;;;;;6026301;23;20043;-81
2022/12/10 09:54:52;;;;;;;13.88;7.65;;;;;;;;;;6006847;23;20078;-80
2022/12/10 09:57:35;;;;;;;13.77;6.85;;;;;;;;;;6006013;23;20019;-82
2022/12/10 10:00:23;;;;;;;12.95;7.30;;;;;;;;;;6030325;23;20019;-80
2022/12/10 10:02:50;;;;;;;12.05;7.72;;;;;;;;;;6002194;23;20022;-81
2022/12/10 10:05:23;;;;;;;13.15;6.97;;;;;;;;;;5990950;23;20103;-80
2022/12/10 10:07:53;;;;;;;13.48;7.47;;;;;;;;;;5996663;23;20053;-81
2022/12/10 10:10:18;;;;;;;13.93;7.63;;;;;;;;;;6006107;23;20440;-81
2022/12/10 10:12:44;;;;;;;14.63;7.80;;;;;;;;;;6031051;23;20042;-81
2022/12/10 10:15:15;;;;;;;12.77;7.25;;;;;;;;;;6031740;23;20458;-82
2022/12/10 10:17:45;;;;;;;13.23;7.18;;;;;;;;;;6004786;23;20019;-79
2022/12/10 10:20:12;;;;;;;14.18;7.82;;;;;;;;;;6029254;23;20030;-81
2022/12/10 10:22:38;;;;;;;13.82;7.32;;;;;;;;;;5997790;23;20025;-83
2022/12/10 10:25:05;;;;;;;13.45;7.38;;;;;;;;;;6007160;23;20040;-81
2022/12/10 10:27:33;;;;;;;15.80;8.18;;;;;;;;;;6029553;23;20023;-81
2022/12/10 10:30:07;;;;;;;15.63;8.40;;;;;;;;;;6005964;23;20642;-81
2022/12/10 10:32:35;;;;;;;13.50;8.07;;;;;;;;;;6005596;23;20131;-81
2022/12/10 10:35:02;;;;;;;13.80;7.70;;;;;;;;;;6029774;23;20524;-79
2022/12/10 10:37:31;;;;;;;16.05;8.52;;;;;;;;;;6006059;23;20020;-82
2022/12/10 10:39:57;;;;;;;12.48;7.10;;;;;;;;;;6006205;23;20023;-81
2022/12/10 10:42:39;;;;;;;13.40;7.38;;;;;;;;;;6005768;23;20118;-82
2022/12/10 10:45:07;;;;;;;14.30;7.63;;;;;;;;;;6030105;23;20021;-80
2022/12/10 10:47:36;;;;;;;13.25;7.78;;;;;;;;;;6005979;23;20047;-80
2022/12/10 10:50:04;;;;;;;13.05;7.70;;;;;;;;;;6005886;23;20480;-79
2022/12/10 10:52:34;;;;;;;12.93;6.85;;;;;;;;;;6006203;23;20460;-79
2022/12/10 10:55:00;;;;;;;16.23;7.03;;;;;;;;;;6005846;23;20046;-79
2022/12/10 10:57:36;;;;;;;14.95;7.70;;;;;;;;;;6005737;23;20861;-80
2022/12/10 11:00:22;;;;;;;12.43;7.10;;;;;;;;;;6008118;23;20086;-79
2022/12/10 11:02:48;;;;;;;14.00;7.85;;;;;;;;;;6008720;23;20019;-81
2022/12/10 11:05:25;;;;;;;12.32;7.30;;;;;;;;;;6008764;23;20593;-78
2022/12/10 11:08:15;;;;;;;14.25;7.95;;;;;;;;;;6054574;23;20022;-78
2022/12/10 11:10:52;;;;;;;12.63;6.75;;;;;;;;;;5981832;23;20352;-77
2022/12/10 11:13:28;;;;;;;13.68;7.55;;;;;;;;;;6008723;23;20472;-79
2022/12/10 11:15:58;;;;;;;13.77;7.45;;;;;;;;;;6006946;23;20513;-81
2022/12/10 11:18:31;;;;;;;12.88;7.65;;;;;;;;;;6031799;23;20345;-80
2022/12/10 11:21:21;;;;;;;12.55;7.75;;;;;;;;;;6006675;23;20022;-81
2022/12/10 11:23:52;;;;;;;16.83;7.68;;;;;;;;;;6001053;23;20019;-79
2022/12/10 11:26:41;;;;;;;13.25;7.72;;;;;;;;;;6006869;23;20167;-81
2022/12/10 11:29:28;;;;;;;14.20;7.53;;;;;;;;;;5996910;23;20027;-78
2022/12/10 11:32:01;;;;;;;13.05;7.20;;;;;;;;;;6031681;23;20015;-78
2022/12/10 11:34:48;;;;;;;15.50;7.93;;;;;;;;;;6032972;23;20023;-79
2022/12/10 11:44:43;;;;;;;14.63;7.82;;;;;;;;;;6004386;23;20372;-86
2022/12/10 11:47:24;;;;;;;13.02;6.95;;;;;;;;;;5986994;23;20473;-85
2022/12/10 11:50:10;;;;;;;12.30;6.32;;;;;;;;;;5976102;23;20012;-84
2022/12/10 11:52:41;;;;;;;14.63;7.90;;;;;;;;;;6031180;23;20098;-85
2022/12/10 11:55:12;;;;;;;14.43;7.55;;;;;;;;;;6010705;23;20051;-85
2022/12/10 11:57:47;;;;;;;11.95;7.07;;;;;;;;;;6036863;23;20120;-87
2022/12/10 12:00:59;;;;;;;14.68;7.70;;;;;;;;;;5916030;23;20076;-87
2022/12/10 12:04:10;;;;;;;15.30;7.43;;;;;;;;;;5946376;23;20020;-86
2022/12/10 12:07:29;;;;;;;14.80;7.68;;;;;;;;;;5987433;23;20026;-87
2022/12/10 12:10:16;;;;;;;13.75;7.28;;;;;;;;;;5917472;24;20020;-80
2022/12/10 12:12:54;;;;;;;14.90;8.20;;;;;;;;;;6055654;23;20486;-80
2022/12/10 12:15:25;;;;;;;12.77;7.22;;;;;;;;;;6033423;23;20348;-81
2022/12/10 12:18:14;;;;;;;16.42;8.65;;;;;;;;;;6006501;23;20019;-85
2022/12/10 12:20:43;;;;;;;13.65;7.53;;;;;;;;;;6018663;23;20015;-83
2022/12/10 12:23:23;;;;;;;14.65;8.13;;;;;;;;;;6006865;23;20042;-81
2022/12/10 12:25:56;;;;;;;12.30;7.43;;;;;;;;;;6008505;23;20335;-80
2022/12/10 12:28:51;;;;;;;13.43;7.47;;;;;;;;;;6009792;23;20020;-81
2022/12/10 12:31:35;;;;;;;14.45;8.27;;;;;;;;;;6007284;23;20015;-79
2022/12/10 12:34:29;;;;;;;14.73;7.78;;;;;;;;;;6031368;23;20099;-82
2022/12/10 12:36:55;;;;;;;14.57;7.95;;;;;;;;;;6022100;23;20352;-80
2022/12/10 12:39:30;;;;;;;15.75;8.85;;;;;;;;;;6032589;23;20025;-82
2022/12/10 12:49:16;;;;;;;12.77;7.45;;;;;;;;;;5967211;24;20036;-91
2022/12/10 12:52:33;;;;;;;13.15;7.50;;;;;;;;;;5920125;24;20028;-91
2022/12/10 13:17:13;;;;;;;16.25;8.43;;;;;;;;;;6007532;23;20130;-92
2022/12/10 13:19:42;;;;;;;14.20;7.75;;;;;;;;;;5960905;23;20441;-82
2022/12/10 13:23:01;;;;;;;15.90;8.32;;;;;;;;;;5964292;23;20019;-82
2022/12/10 13:26:16;;;;;;;15.65;8.13;;;;;;;;;;5935979;23;20721;-86
2022/12/10 13:29:11;;;;;;;14.38;8.90;;;;;;;;;;5975045;23;20028;-86
2022/12/10 13:31:55;;;;;;;15.27;7.88;;;;;;;;;;5930468;23;20058;-84
2022/12/10 13:34:34;;;;;;;15.50;8.73;;;;;;;;;;5939874;23;20083;-85
2022/12/10 13:37:46;;;;;;;15.65;8.70;;;;;;;;;;6008518;23;20024;-83
2022/12/10 13:40:22;;;;;;;17.08;8.80;;;;;;;;;;5990324;23;20368;-84
2022/12/10 13:46:21;;;;;;;18.10;9.23;;;;;;;;;;5990620;23;20079;-84
2022/12/10 13:48:50;;;;;;;15.07;8.93;;;;;;;;;;5913404;23;20020;-87
2022/12/10 13:51:52;;;;;;;17.63;9.20;;;;;;;;;;5926609;24;20405;-88
2022/12/10 13:54:33;;;;;;;17.50;9.05;;;;;;;;;;6002893;23;20027;-87
2022/12/10 13:57:16;;;;;;;15.65;8.82;;;;;;;;;;5987203;23;20395;-87
2022/12/10 14:00:05;;;;;;;16.33;9.48;;;;;;;;;;5974813;23;20087;-83
2022/12/10 14:03:09;;;;;;;15.93;8.68;;;;;;;;;;6001954;23;20090;-90
2022/12/10 14:06:05;;;;;;;16.42;8.75;;;;;;;;;;5958086;23;20019;-91
2022/12/10 14:08:38;;;;;;;17.77;8.70;;;;;;;;;;5975829;23;20078;-92
2022/12/10 14:11:44;;;;;;;18.77;9.82;;;;;;;;;;5933716;23;20015;-91
2022/12/10 14:14:14;;;;;;;16.88;8.98;;;;;;;;;;5977829;23;20389;-92
2022/12/10 14:17:01;;;;;;;17.48;8.70;;;;;;;;;;5935500;23;20049;-91
2022/12/10 14:19:33;;;;;;;15.75;8.70;;;;;;;;;;5941835;23;20385;-90
2022/12/10 14:22:06;;;;;;;17.88;8.73;;;;;;;;;;5929408;23;20015;-89
2022/12/10 14:24:40;;;;;;;18.00;9.00;;;;;;;;;;5972364;23;20392;-90
2022/12/10 14:27:15;;;;;;;18.00;9.00;;;;;;;;;;5973405;23;20088;-89
2022/12/10 14:29:52;;;;;;;16.88;9.38;;;;;;;;;;5984103;23;20420;-91
2022/12/10 14:32:26;;;;;;;18.65;9.52;;;;;;;;;;5984091;23;20359;-89
2022/12/10 14:34:54;;;;;;;18.60;9.38;;;;;;;;;;6016209;23;20019;-89
2022/12/10 14:37:24;;;;;;;16.77;9.10;;;;;;;;;;5991803;23;20051;-88
2022/12/10 14:39:50;;;;;;;17.10;8.68;;;;;;;;;;5980189;23;20075;-89
2022/12/10 14:42:16;;;;;;;15.90;8.23;;;;;;;;;;5978791;23;20023;-89
2022/12/10 14:44:41;;;;;;;18.88;8.75;;;;;;;;;;5965440;23;20030;-89
2022/12/10 14:47:16;;;;;;;16.25;8.02;;;;;;;;;;6002516;23;20024;-87
2022/12/10 14:49:45;;;;;;;18.90;9.68;;;;;;;;;;5960525;23;20019;-89
2022/12/10 14:52:16;;;;;;;16.48;8.90;;;;;;;;;;5972343;23;20118;-92
2022/12/10 14:54:49;;;;;;;20.48;8.98;;;;;;;;;;5996441;23;20408;-88
2022/12/10 14:57:19;;;;;;;16.95;8.52;;;;;;;;;;5958416;23;20030;-90
2022/12/10 15:00:07;;;;;;;19.30;9.38;;;;;;;;;;5994828;23;20020;-89
2022/12/10 15:02:47;;;;;;;16.25;8.38;;;;;;;;;;6030435;23;20142;-90
2022/12/10 15:05:32;;;;;;;19.35;9.50;;;;;;;;;;5996134;23;20079;-90
2022/12/10 15:08:13;;;;;;;20.60;8.85;;;;;;;;;;5981872;23;20046;-89
2022/12/10 15:10:44;;;;;;;17.25;8.23;;;;;;;;;;5987116;23;20011;-89
2022/12/10 15:13:20;;;;;;;17.23;8.32;;;;;;;;;;6009621;23;20440;-90
2022/12/10 15:15:49;;;;;;;19.02;9.02;;;;;;;;;;6035065;23;20019;-91
2022/12/10 15:18:27;;;;;;;20.70;9.15;;;;;;;;;;5983690;23;20028;-88
2022/12/10 15:20:54;;;;;;;16.00;8.10;;;;;;;;;;6012392;23;20565;-92
2022/12/10 15:23:26;;;;;;;18.77;8.25;;;;;;;;;;5995403;23;20085;-89
2022/12/10 15:26:07;;;;;;;18.17;8.10;;;;;;;;;;5988025;23;20020;-88
2022/12/10 15:28:36;;;;;;;20.42;9.10;;;;;;;;;;6005589;23;20020;-85
2022/12/10 15:31:16;;;;;;;21.85;8.45;;;;;;;;;;6028114;23;20025;-81
2022/12/10 15:34:02;;;;;;;19.13;9.48;;;;;;;;;;6027127;23;20027;-81
2022/12/10 15:36:49;;;;;;;20.83;9.25;;;;;;;;;;5986792;23;20023;-82
2022/12/10 15:39:31;;;;;;;18.00;8.55;;;;;;;;;;6030083;23;20022;-81
2022/12/10 15:42:01;;;;;;;19.10;8.90;;;;;;;;;;5986062;23;20016;-82
2022/12/10 15:44:39;;;;;;;18.42;8.50;;;;;;;;;;5979258;23;20083;-82